Beryl Junction, Utah
Current Conditions -  °F | °C
As of 9:53 PM on Monday 20 Oct 2014 (Local Time) from KCDC Reporting Station
Clear Clear  
Wind Chill: 17°   Ceiling: Unl
Heat Index: 17°   Visibility: 10mi
Dew Point:   Wind: 15mph
Humidity: 38%   Direction: 120°ESE
Pressure: 30.02"   Gusts: NA
Location:  38.0286°N, 113.572°W
Report Text: KCDC 210353Z AUTO 12013KT 10SM CLR 17/02 A3002 RMK AO2 SLP113 T01670022 TSNO
Loading
Personal Weather Stations






























Interactive Weather Map
Tropical Storm Tracking
New forecast layout! Learn more

10-Day Weather Forecast

Advertisements
Track Severe Weather on mobile